This is the latest recevied weather packets stored in our database for station/object KQ4JKJ. If no packets are shown the sender has not sent any weather packets the latest 10 day(s).
| Time | Temp. | Humidity | Pressure | Rain* | Wind** | Luminosity | Snow |
|---|---|---|---|---|---|---|---|
| 1777916609 | 26.11° C | 63% | 1011.4 hPa | 0 mm | - | 704 W/m² | - |
| 1777916306 | 26.11° C | 63% | 1011.5 hPa | 0 mm | - | 674 W/m² | - |
| 1777916003 | 25.56° C | 63% | 1011.4 hPa | 0 mm | - | 600 W/m² | - |
| 1777915700 | 25.56° C | 62% | 1011.4 hPa | 0 mm | - | 632 W/m² | - |
| 1777915397 | 26.11° C | 62% | 1011.4 hPa | 0 mm | - | 314 W/m² | - |
| 1777915092 | 26.67° C | 61% | 1011.6 hPa | 0 mm | - | 849 W/m² | - |
| 1777914790 | 25.56° C | 63% | 1011.5 hPa | 0 mm | - | 902 W/m² | - |
| 1777914487 | 24.44° C | 66% | 1011.7 hPa | 0 mm | - | 375 W/m² | - |
| 1777914184 | 24.44° C | 66% | 1011.8 hPa | 0 mm | - | 145 W/m² | - |
| 1777913880 | 24.44° C | 65% | 1011.9 hPa | 0 mm | - | 140 W/m² | - |
| 1777913577 | 24.44° C | 65% | 1011.7 hPa | 0 mm | - | 320 W/m² | - |
| 1777913273 | 24.44° C | 65% | 1011.8 hPa | 0 mm | - | 168 W/m² | - |
| 1777912970 | 24.44° C | 65% | 1011.9 hPa | 0 mm | - | 193 W/m² | - |
| 1777912666 | 25° C | 65% | 1011.9 hPa | 0 mm | - | 180 W/m² | - |
| 1777912362 | 24.44° C | 65% | 1012 hPa | 0 mm | - | 181 W/m² | - |
| 1777912058 | 25.56° C | 63% | 1011.9 hPa | 0 mm | - | 181 W/m² | - |
| 1777911754 | 25.56° C | 63% | 1011.8 hPa | 0 mm | - | 246 W/m² | - |
| 1777911451 | 25.56° C | 61% | 1011.9 hPa | 0 mm | - | 466 W/m² | - |
| 1777911148 | 26.11° C | 61% | 1011.8 hPa | 0 mm | - | 314 W/m² | - |
| 1777910846 | 26.67° C | 59% | 1011.6 hPa | 0 mm | - | 513 W/m² | - |
| 1777910542 | 26.67° C | 59% | 1011.9 hPa | 0 mm | - | 850 W/m² | - |
| 1777910240 | 25.56° C | 61% | 1011.8 hPa | 0 mm | - | 701 W/m² | - |
| 1777909936 | 26.11° C | 62% | 1011.7 hPa | 0 mm | - | 767 W/m² | - |
| 1777909633 | 25° C | 63% | 1011.8 hPa | 0 mm | - | 759 W/m² | - |
| 1777909331 | 25° C | 63% | 1011.9 hPa | 0 mm | - | 642 W/m² | - |
* Rain latest hour (hover to see other rain measurements)
** Current wind speed in m/s (hover to see current wind gust speed)